sensor_id;sensor_type;location;lat;lon;timestamp;P1;durP1;ratioP1;P2;durP2;ratioP2
16824;SDS011;8529;48.108;-1.706;2022-08-01T00:02:14;6.85;;;3.10;;
16824;SDS011;8529;48.108;-1.706;2022-08-01T00:04:41;4.07;;;2.63;;
16824;SDS011;8529;48.108;-1.706;2022-08-01T00:07:08;6.68;;;3.03;;
16824;SDS011;8529;48.108;-1.706;2022-08-01T00:09:35;5.32;;;3.00;;
16824;SDS011;8529;48.108;-1.706;2022-08-01T00:12:02;6.82;;;3.40;;
16824;SDS011;8529;48.108;-1.706;2022-08-01T00:14:30;5.43;;;3.10;;
16824;SDS011;8529;48.108;-1.706;2022-08-01T00:16:57;5.82;;;3.05;;
16824;SDS011;8529;48.108;-1.706;2022-08-01T00:19:25;9.40;;;3.58;;
16824;SDS011;8529;48.108;-1.706;2022-08-01T00:21:52;4.43;;;3.20;;
16824;SDS011;8529;48.108;-1.706;2022-08-01T00:24:19;8.23;;;3.40;;
16824;SDS011;8529;48.108;-1.706;2022-08-01T00:26:46;8.27;;;3.95;;
16824;SDS011;8529;48.108;-1.706;2022-08-01T00:29:12;5.88;;;3.63;;
16824;SDS011;8529;48.108;-1.706;2022-08-01T00:31:39;4.95;;;3.10;;
16824;SDS011;8529;48.108;-1.706;2022-08-01T00:34:06;5.75;;;3.00;;
16824;SDS011;8529;48.108;-1.706;2022-08-01T00:36:34;4.55;;;2.83;;
16824;SDS011;8529;48.108;-1.706;2022-08-01T00:39:01;6.18;;;3.05;;
16824;SDS011;8529;48.108;-1.706;2022-08-01T00:41:28;5.03;;;2.58;;
16824;SDS011;8529;48.108;-1.706;2022-08-01T00:43:55;4.65;;;2.22;;
16824;SDS011;8529;48.108;-1.706;2022-08-01T00:46:22;4.90;;;2.67;;
16824;SDS011;8529;48.108;-1.706;2022-08-01T00:48:49;6.55;;;2.95;;
16824;SDS011;8529;48.108;-1.706;2022-08-01T00:51:16;5.95;;;2.50;;
16824;SDS011;8529;48.108;-1.706;2022-08-01T00:53:45;6.45;;;2.78;;
16824;SDS011;8529;48.108;-1.706;2022-08-01T00:56:12;6.18;;;2.97;;
16824;SDS011;8529;48.108;-1.706;2022-08-01T00:58:40;4.05;;;2.45;;
16824;SDS011;8529;48.108;-1.706;2022-08-01T01:01:07;5.50;;;3.17;;
16824;SDS011;8529;48.108;-1.706;2022-08-01T01:03:34;4.57;;;2.28;;
16824;SDS011;8529;48.108;-1.706;2022-08-01T01:06:05;4.18;;;2.20;;
16824;SDS011;8529;48.108;-1.706;2022-08-01T01:08:39;3.72;;;2.17;;
16824;SDS011;8529;48.108;-1.706;2022-08-01T01:11:13;3.38;;;2.08;;
16824;SDS011;8529;48.108;-1.706;2022-08-01T01:13:46;3.88;;;2.35;;
16824;SDS011;8529;48.108;-1.706;2022-08-01T01:16:18;3.95;;;2.20;;
16824;SDS011;8529;48.108;-1.706;2022-08-01T01:18:47;3.92;;;2.10;;
16824;SDS011;8529;48.108;-1.706;2022-08-01T01:21:32;3.58;;;1.95;;
16824;SDS011;8529;48.108;-1.706;2022-08-01T01:24:13;3.55;;;1.90;;
16824;SDS011;8529;48.108;-1.706;2022-08-01T01:26:50;3.83;;;2.13;;
16824;SDS011;8529;48.108;-1.706;2022-08-01T01:29:25;5.90;;;2.75;;
16824;SDS011;8529;48.108;-1.706;2022-08-01T01:31:57;3.10;;;2.13;;
16824;SDS011;8529;48.108;-1.706;2022-08-01T01:34:31;4.05;;;2.08;;
16824;SDS011;8529;48.108;-1.706;2022-08-01T01:37:01;2.75;;;2.15;;
16824;SDS011;8529;48.108;-1.706;2022-08-01T01:39:28;4.97;;;2.53;;
16824;SDS011;8529;48.108;-1.706;2022-08-01T01:41:56;5.78;;;2.58;;
16824;SDS011;8529;48.108;-1.706;2022-08-01T01:44:26;3.97;;;2.58;;
16824;SDS011;8529;48.108;-1.706;2022-08-01T01:46:54;3.83;;;2.40;;
16824;SDS011;8529;48.108;-1.706;2022-08-01T01:49:24;3.65;;;2.55;;
16824;SDS011;8529;48.108;-1.706;2022-08-01T01:51:53;4.18;;;2.60;;
16824;SDS011;8529;48.108;-1.706;2022-08-01T01:54:22;3.63;;;2.40;;
16824;SDS011;8529;48.108;-1.706;2022-08-01T01:56:55;3.60;;;2.67;;
16824;SDS011;8529;48.108;-1.706;2022-08-01T01:59:25;3.92;;;2.60;;
16824;SDS011;8529;48.108;-1.706;2022-08-01T02:01:56;4.07;;;2.67;;
16824;SDS011;8529;48.108;-1.706;2022-08-01T02:04:25;7.93;;;2.80;;
16824;SDS011;8529;48.108;-1.706;2022-08-01T02:06:54;2.90;;;2.42;;
16824;SDS011;8529;48.108;-1.706;2022-08-01T02:09:23;2.90;;;2.13;;
16824;SDS011;8529;48.108;-1.706;2022-08-01T02:11:52;3.78;;;2.28;;
16824;SDS011;8529;48.108;-1.706;2022-08-01T02:14:20;4.65;;;2.45;;
16824;SDS011;8529;48.108;-1.706;2022-08-01T02:16:50;5.18;;;2.33;;
16824;SDS011;8529;48.108;-1.706;2022-08-01T02:19:17;4.40;;;2.20;;
16824;SDS011;8529;48.108;-1.706;2022-08-01T02:21:46;4.15;;;2.20;;
16824;SDS011;8529;48.108;-1.706;2022-08-01T02:24:17;4.75;;;2.00;;
16824;SDS011;8529;48.108;-1.706;2022-08-01T02:26:50;3.05;;;1.95;;
16824;SDS011;8529;48.108;-1.706;2022-08-01T02:29:21;5.18;;;2.45;;
16824;SDS011;8529;48.108;-1.706;2022-08-01T02:32:00;6.47;;;1.92;;
16824;SDS011;8529;48.108;-1.706;2022-08-01T02:34:28;9.90;;;2.08;;
16824;SDS011;8529;48.108;-1.706;2022-08-01T02:36:57;4.40;;;2.17;;
16824;SDS011;8529;48.108;-1.706;2022-08-01T02:39:26;3.80;;;1.90;;
16824;SDS011;8529;48.108;-1.706;2022-08-01T02:41:57;4.95;;;2.28;;
16824;SDS011;8529;48.108;-1.706;2022-08-01T02:44:28;3.38;;;2.13;;
16824;SDS011;8529;48.108;-1.706;2022-08-01T02:46:59;1.48;;;1.33;;
16824;SDS011;8529;48.108;-1.706;2022-08-01T02:49:29;3.13;;;1.60;;
16824;SDS011;8529;48.108;-1.706;2022-08-01T02:52:01;2.60;;;1.50;;
16824;SDS011;8529;48.108;-1.706;2022-08-01T02:54:33;8.10;;;1.95;;
16824;SDS011;8529;48.108;-1.706;2022-08-01T02:57:02;1.83;;;1.30;;
16824;SDS011;8529;48.108;-1.706;2022-08-01T02:59:31;4.35;;;1.38;;
16824;SDS011;8529;48.108;-1.706;2022-08-01T03:02:03;1.33;;;1.10;;
16824;SDS011;8529;48.108;-1.706;2022-08-01T03:04:33;5.80;;;1.40;;
16824;SDS011;8529;48.108;-1.706;2022-08-01T03:07:01;1.48;;;1.25;;
16824;SDS011;8529;48.108;-1.706;2022-08-01T03:09:30;1.13;;;1.02;;
16824;SDS011;8529;48.108;-1.706;2022-08-01T03:12:02;1.45;;;1.30;;
16824;SDS011;8529;48.108;-1.706;2022-08-01T03:14:35;1.35;;;1.20;;
16824;SDS011;8529;48.108;-1.706;2022-08-01T03:17:06;2.50;;;1.38;;
16824;SDS011;8529;48.108;-1.706;2022-08-01T03:19:34;1.10;;;1.00;;
16824;SDS011;8529;48.108;-1.706;2022-08-01T03:22:02;1.55;;;1.30;;
16824;SDS011;8529;48.108;-1.706;2022-08-01T03:24:33;2.20;;;1.20;;
16824;SDS011;8529;48.108;-1.706;2022-08-01T03:27:03;2.38;;;1.20;;
16824;SDS011;8529;48.108;-1.706;2022-08-01T03:29:30;2.47;;;1.30;;
16824;SDS011;8529;48.108;-1.706;2022-08-01T03:31:59;1.30;;;1.20;;
16824;SDS011;8529;48.108;-1.706;2022-08-01T03:34:28;1.27;;;0.98;;
16824;SDS011;8529;48.108;-1.706;2022-08-01T03:36:58;1.38;;;0.98;;
16824;SDS011;8529;48.108;-1.706;2022-08-01T03:39:30;3.25;;;1.30;;
16824;SDS011;8529;48.108;-1.706;2022-08-01T03:42:01;1.60;;;1.20;;
16824;SDS011;8529;48.108;-1.706;2022-08-01T03:44:32;2.10;;;0.93;;
16824;SDS011;8529;48.108;-1.706;2022-08-01T03:47:05;2.63;;;0.98;;
16824;SDS011;8529;48.108;-1.706;2022-08-01T03:49:37;1.30;;;1.00;;
16824;SDS011;8529;48.108;-1.706;2022-08-01T03:52:09;1.00;;;0.90;;
16824;SDS011;8529;48.108;-1.706;2022-08-01T03:54:38;1.13;;;1.00;;
16824;SDS011;8529;48.108;-1.706;2022-08-01T03:57:10;2.65;;;0.98;;
16824;SDS011;8529;48.108;-1.706;2022-08-01T03:59:37;0.60;;;0.60;;
16824;SDS011;8529;48.108;-1.706;2022-08-01T04:02:06;1.23;;;0.85;;
16824;SDS011;8529;48.108;-1.706;2022-08-01T04:04:33;1.20;;;0.65;;
16824;SDS011;8529;48.108;-1.706;2022-08-01T04:07:02;0.70;;;0.55;;
16824;SDS011;8529;48.108;-1.706;2022-08-01T04:09:31;0.63;;;0.47;;
16824;SDS011;8529;48.108;-1.706;2022-08-01T04:11:58;1.02;;;0.77;;
16824;SDS011;8529;48.108;-1.706;2022-08-01T04:14:26;1.10;;;0.60;;
16824;SDS011;8529;48.108;-1.706;2022-08-01T04:16:53;0.60;;;0.60;;
16824;SDS011;8529;48.108;-1.706;2022-08-01T04:19:20;0.40;;;0.40;;
16824;SDS011;8529;48.108;-1.706;2022-08-01T04:21:47;0.52;;;0.40;;
16824;SDS011;8529;48.108;-1.706;2022-08-01T04:24:16;2.10;;;0.47;;
16824;SDS011;8529;48.108;-1.706;2022-08-01T04:26:45;0.88;;;0.50;;
16824;SDS011;8529;48.108;-1.706;2022-08-01T04:29:13;0.40;;;0.40;;
16824;SDS011;8529;48.108;-1.706;2022-08-01T04:31:43;0.30;;;0.30;;
16824;SDS011;8529;48.108;-1.706;2022-08-01T04:34:14;0.47;;;0.40;;
16824;SDS011;8529;48.108;-1.706;2022-08-01T04:36:43;0.73;;;0.50;;
16824;SDS011;8529;48.108;-1.706;2022-08-01T04:39:11;1.38;;;0.40;;
16824;SDS011;8529;48.108;-1.706;2022-08-01T04:41:43;0.40;;;0.40;;
16824;SDS011;8529;48.108;-1.706;2022-08-01T04:44:11;0.50;;;0.38;;
16824;SDS011;8529;48.108;-1.706;2022-08-01T04:46:39;0.40;;;0.40;;
16824;SDS011;8529;48.108;-1.706;2022-08-01T04:49:08;0.50;;;0.40;;
16824;SDS011;8529;48.108;-1.706;2022-08-01T04:51:36;0.45;;;0.40;;
16824;SDS011;8529;48.108;-1.706;2022-08-01T04:54:15;0.57;;;0.35;;
16824;SDS011;8529;48.108;-1.706;2022-08-01T04:56:44;1.67;;;0.50;;
16824;SDS011;8529;48.108;-1.706;2022-08-01T04:59:11;2.30;;;0.40;;
16824;SDS011;8529;48.108;-1.706;2022-08-01T05:01:55;0.68;;;0.47;;
16824;SDS011;8529;48.108;-1.706;2022-08-01T05:04:22;0.70;;;0.40;;
16824;SDS011;8529;48.108;-1.706;2022-08-01T05:06:49;0.57;;;0.43;;
16824;SDS011;8529;48.108;-1.706;2022-08-01T05:09:16;0.55;;;0.47;;
16824;SDS011;8529;48.108;-1.706;2022-08-01T05:11:44;0.68;;;0.52;;
16824;SDS011;8529;48.108;-1.706;2022-08-01T05:14:11;0.55;;;0.50;;
16824;SDS011;8529;48.108;-1.706;2022-08-01T05:16:38;0.65;;;0.50;;
16824;SDS011;8529;48.108;-1.706;2022-08-01T05:19:05;2.08;;;0.50;;
16824;SDS011;8529;48.108;-1.706;2022-08-01T05:21:33;0.57;;;0.57;;
16824;SDS011;8529;48.108;-1.706;2022-08-01T05:24:00;1.63;;;0.80;;
16824;SDS011;8529;48.108;-1.706;2022-08-01T05:26:27;1.52;;;0.55;;
16824;SDS011;8529;48.108;-1.706;2022-08-01T05:28:55;0.40;;;0.40;;
16824;SDS011;8529;48.108;-1.706;2022-08-01T05:31:22;0.70;;;0.60;;
16824;SDS011;8529;48.108;-1.706;2022-08-01T05:33:49;0.45;;;0.40;;
16824;SDS011;8529;48.108;-1.706;2022-08-01T05:36:16;0.70;;;0.50;;
16824;SDS011;8529;48.108;-1.706;2022-08-01T05:38:43;0.35;;;0.30;;
16824;SDS011;8529;48.108;-1.706;2022-08-01T05:41:10;0.57;;;0.50;;
16824;SDS011;8529;48.108;-1.706;2022-08-01T05:43:37;0.90;;;0.40;;
16824;SDS011;8529;48.108;-1.706;2022-08-01T05:46:05;0.50;;;0.50;;
16824;SDS011;8529;48.108;-1.706;2022-08-01T05:48:32;1.27;;;0.50;;
16824;SDS011;8529;48.108;-1.706;2022-08-01T05:50:59;0.63;;;0.50;;
16824;SDS011;8529;48.108;-1.706;2022-08-01T05:53:26;0.77;;;0.50;;
16824;SDS011;8529;48.108;-1.706;2022-08-01T05:55:53;0.50;;;0.40;;
16824;SDS011;8529;48.108;-1.706;2022-08-01T05:58:20;1.77;;;0.50;;
16824;SDS011;8529;48.108;-1.706;2022-08-01T06:00:46;1.08;;;0.52;;
16824;SDS011;8529;48.108;-1.706;2022-08-01T06:03:15;0.40;;;0.40;;
16824;SDS011;8529;48.108;-1.706;2022-08-01T06:05:42;0.57;;;0.40;;
16824;SDS011;8529;48.108;-1.706;2022-08-01T06:08:08;0.40;;;0.30;;
16824;SDS011;8529;48.108;-1.706;2022-08-01T06:10:35;0.40;;;0.40;;
16824;SDS011;8529;48.108;-1.706;2022-08-01T06:13:02;1.10;;;0.70;;
16824;SDS011;8529;48.108;-1.706;2022-08-01T06:15:29;2.45;;;0.57;;
16824;SDS011;8529;48.108;-1.706;2022-08-01T06:17:56;1.05;;;0.60;;
16824;SDS011;8529;48.108;-1.706;2022-08-01T06:20:24;1.27;;;0.60;;
16824;SDS011;8529;48.108;-1.706;2022-08-01T06:22:51;0.93;;;0.50;;
16824;SDS011;8529;48.108;-1.706;2022-08-01T06:25:19;1.08;;;0.70;;
16824;SDS011;8529;48.108;-1.706;2022-08-01T06:27:46;0.98;;;0.68;;
16824;SDS011;8529;48.108;-1.706;2022-08-01T06:30:14;0.70;;;0.45;;
16824;SDS011;8529;48.108;-1.706;2022-08-01T06:32:41;0.88;;;0.50;;
16824;SDS011;8529;48.108;-1.706;2022-08-01T06:35:08;0.40;;;0.40;;
16824;SDS011;8529;48.108;-1.706;2022-08-01T06:37:36;1.40;;;0.50;;
16824;SDS011;8529;48.108;-1.706;2022-08-01T06:40:04;0.45;;;0.43;;
16824;SDS011;8529;48.108;-1.706;2022-08-01T06:42:32;1.92;;;0.70;;
16824;SDS011;8529;48.108;-1.706;2022-08-01T06:45:01;0.68;;;0.55;;
16824;SDS011;8529;48.108;-1.706;2022-08-01T06:47:28;0.50;;;0.40;;
16824;SDS011;8529;48.108;-1.706;2022-08-01T06:49:55;1.30;;;0.60;;
16824;SDS011;8529;48.108;-1.706;2022-08-01T06:52:22;0.75;;;0.47;;
16824;SDS011;8529;48.108;-1.706;2022-08-01T06:54:50;0.60;;;0.60;;
16824;SDS011;8529;48.108;-1.706;2022-08-01T06:57:18;0.57;;;0.40;;
16824;SDS011;8529;48.108;-1.706;2022-08-01T06:59:45;0.40;;;0.40;;
16824;SDS011;8529;48.108;-1.706;2022-08-01T07:02:12;0.45;;;0.30;;
16824;SDS011;8529;48.108;-1.706;2022-08-01T07:04:39;0.82;;;0.57;;
16824;SDS011;8529;48.108;-1.706;2022-08-01T07:07:06;0.90;;;0.47;;
16824;SDS011;8529;48.108;-1.706;2022-08-01T07:09:32;0.80;;;0.60;;
16824;SDS011;8529;48.108;-1.706;2022-08-01T07:12:01;0.98;;;0.50;;
16824;SDS011;8529;48.108;-1.706;2022-08-01T07:14:28;0.82;;;0.70;;
16824;SDS011;8529;48.108;-1.706;2022-08-01T07:16:55;1.48;;;0.60;;
16824;SDS011;8529;48.108;-1.706;2022-08-01T07:19:22;1.05;;;0.40;;
16824;SDS011;8529;48.108;-1.706;2022-08-01T07:21:49;0.77;;;0.60;;
16824;SDS011;8529;48.108;-1.706;2022-08-01T07:24:15;1.50;;;0.40;;
16824;SDS011;8529;48.108;-1.706;2022-08-01T07:26:43;0.77;;;0.70;;
16824;SDS011;8529;48.108;-1.706;2022-08-01T07:29:12;1.35;;;0.50;;
16824;SDS011;8529;48.108;-1.706;2022-08-01T07:31:39;0.80;;;0.60;;
16824;SDS011;8529;48.108;-1.706;2022-08-01T07:34:07;0.85;;;0.70;;
16824;SDS011;8529;48.108;-1.706;2022-08-01T07:36:34;0.60;;;0.60;;
16824;SDS011;8529;48.108;-1.706;2022-08-01T07:39:01;1.80;;;0.68;;
16824;SDS011;8529;48.108;-1.706;2022-08-01T07:41:28;1.13;;;0.60;;
16824;SDS011;8529;48.108;-1.706;2022-08-01T07:43:55;0.60;;;0.60;;
16824;SDS011;8529;48.108;-1.706;2022-08-01T07:46:23;0.80;;;0.50;;
16824;SDS011;8529;48.108;-1.706;2022-08-01T07:48:50;6.38;;;0.80;;
16824;SDS011;8529;48.108;-1.706;2022-08-01T07:51:17;9.88;;;1.67;;
16824;SDS011;8529;48.108;-1.706;2022-08-01T07:53:44;2.65;;;0.90;;
16824;SDS011;8529;48.108;-1.706;2022-08-01T07:56:11;3.60;;;0.80;;
16824;SDS011;8529;48.108;-1.706;2022-08-01T07:58:38;1.10;;;0.60;;
16824;SDS011;8529;48.108;-1.706;2022-08-01T08:01:05;1.98;;;0.85;;
16824;SDS011;8529;48.108;-1.706;2022-08-01T08:03:34;2.05;;;0.70;;
16824;SDS011;8529;48.108;-1.706;2022-08-01T08:06:01;3.72;;;0.85;;
16824;SDS011;8529;48.108;-1.706;2022-08-01T08:08:28;0.60;;;0.60;;
16824;SDS011;8529;48.108;-1.706;2022-08-01T08:10:54;2.70;;;0.93;;
16824;SDS011;8529;48.108;-1.706;2022-08-01T08:13:21;2.50;;;0.80;;
16824;SDS011;8529;48.108;-1.706;2022-08-01T08:15:48;2.00;;;0.93;;
16824;SDS011;8529;48.108;-1.706;2022-08-01T08:18:15;1.13;;;0.80;;
16824;SDS011;8529;48.108;-1.706;2022-08-01T08:20:44;2.58;;;0.90;;
16824;SDS011;8529;48.108;-1.706;2022-08-01T08:23:11;1.98;;;0.85;;
16824;SDS011;8529;48.108;-1.706;2022-08-01T08:25:55;0.85;;;0.60;;
16824;SDS011;8529;48.108;-1.706;2022-08-01T08:28:22;0.95;;;0.70;;
16824;SDS011;8529;48.108;-1.706;2022-08-01T08:30:49;1.75;;;0.80;;
16824;SDS011;8529;48.108;-1.706;2022-08-01T08:33:16;1.75;;;0.70;;
16824;SDS011;8529;48.108;-1.706;2022-08-01T08:35:44;0.98;;;0.70;;
16824;SDS011;8529;48.108;-1.706;2022-08-01T08:38:11;1.13;;;0.63;;
16824;SDS011;8529;48.108;-1.706;2022-08-01T08:40:38;0.80;;;0.70;;
16824;SDS011;8529;48.108;-1.706;2022-08-01T08:43:05;1.02;;;0.60;;
16824;SDS011;8529;48.108;-1.706;2022-08-01T08:45:32;0.40;;;0.40;;
16824;SDS011;8529;48.108;-1.706;2022-08-01T08:48:00;0.90;;;0.60;;
16824;SDS011;8529;48.108;-1.706;2022-08-01T08:50:27;1.55;;;0.55;;
16824;SDS011;8529;48.108;-1.706;2022-08-01T08:52:56;0.80;;;0.60;;
16824;SDS011;8529;48.108;-1.706;2022-08-01T08:55:26;0.73;;;0.60;;
16824;SDS011;8529;48.108;-1.706;2022-08-01T08:57:54;2.60;;;0.70;;
16824;SDS011;8529;48.108;-1.706;2022-08-01T09:00:22;1.38;;;0.63;;
16824;SDS011;8529;48.108;-1.706;2022-08-01T09:02:49;1.75;;;0.63;;
16824;SDS011;8529;48.108;-1.706;2022-08-01T09:05:21;0.88;;;0.80;;
16824;SDS011;8529;48.108;-1.706;2022-08-01T09:07:50;0.80;;;0.80;;
16824;SDS011;8529;48.108;-1.706;2022-08-01T09:10:19;1.02;;;0.70;;
16824;SDS011;8529;48.108;-1.706;2022-08-01T09:13:02;1.13;;;0.70;;
16824;SDS011;8529;48.108;-1.706;2022-08-01T09:15:39;1.58;;;1.10;;
16824;SDS011;8529;48.108;-1.706;2022-08-01T09:18:07;0.85;;;0.85;;
16824;SDS011;8529;48.108;-1.706;2022-08-01T09:20:35;1.30;;;1.00;;
16824;SDS011;8529;48.108;-1.706;2022-08-01T09:23:02;1.98;;;0.90;;
16824;SDS011;8529;48.108;-1.706;2022-08-01T09:25:30;1.05;;;0.90;;
16824;SDS011;8529;48.108;-1.706;2022-08-01T09:28:17;0.95;;;0.80;;
16824;SDS011;8529;48.108;-1.706;2022-08-01T09:30:52;1.13;;;0.90;;
16824;SDS011;8529;48.108;-1.706;2022-08-01T09:33:21;0.93;;;0.73;;
16824;SDS011;8529;48.108;-1.706;2022-08-01T09:35:53;2.60;;;1.10;;
16824;SDS011;8529;48.108;-1.706;2022-08-01T09:38:21;2.33;;;0.77;;
16824;SDS011;8529;48.108;-1.706;2022-08-01T09:40:52;2.03;;;1.08;;
16824;SDS011;8529;48.108;-1.706;2022-08-01T09:43:20;6.25;;;1.55;;
16824;SDS011;8529;48.108;-1.706;2022-08-01T09:45:48;2.45;;;0.93;;
16824;SDS011;8529;48.108;-1.706;2022-08-01T09:48:15;1.75;;;1.30;;
16824;SDS011;8529;48.108;-1.706;2022-08-01T09:50:43;1.42;;;1.33;;
16824;SDS011;8529;48.108;-1.706;2022-08-01T09:53:11;1.95;;;1.35;;
16824;SDS011;8529;48.108;-1.706;2022-08-01T09:55:39;1.38;;;1.20;;
16824;SDS011;8529;48.108;-1.706;2022-08-01T09:58:08;2.05;;;1.20;;
16824;SDS011;8529;48.108;-1.706;2022-08-01T10:00:37;1.63;;;1.25;;
16824;SDS011;8529;48.108;-1.706;2022-08-01T10:03:18;1.60;;;1.30;;
16824;SDS011;8529;48.108;-1.706;2022-08-01T10:05:46;1.25;;;1.15;;
16824;SDS011;8529;48.108;-1.706;2022-08-01T10:08:13;1.75;;;1.25;;
16824;SDS011;8529;48.108;-1.706;2022-08-01T10:10:41;1.92;;;1.15;;
16824;SDS011;8529;48.108;-1.706;2022-08-01T10:13:11;1.67;;;1.20;;
16824;SDS011;8529;48.108;-1.706;2022-08-01T10:15:38;3.03;;;1.52;;
16824;SDS011;8529;48.108;-1.706;2022-08-01T10:18:07;1.80;;;1.15;;
16824;SDS011;8529;48.108;-1.706;2022-08-01T10:20:36;1.80;;;1.30;;
16824;SDS011;8529;48.108;-1.706;2022-08-01T10:23:03;2.25;;;1.23;;
16824;SDS011;8529;48.108;-1.706;2022-08-01T10:25:33;2.80;;;1.40;;
16824;SDS011;8529;48.108;-1.706;2022-08-01T10:28:02;1.33;;;1.13;;
16824;SDS011;8529;48.108;-1.706;2022-08-01T10:30:41;1.92;;;1.50;;
16824;SDS011;8529;48.108;-1.706;2022-08-01T10:33:08;2.78;;;1.50;;
16824;SDS011;8529;48.108;-1.706;2022-08-01T10:35:36;5.55;;;1.90;;
16824;SDS011;8529;48.108;-1.706;2022-08-01T10:38:05;2.92;;;1.30;;
16824;SDS011;8529;48.108;-1.706;2022-08-01T10:40:32;1.67;;;1.58;;
16824;SDS011;8529;48.108;-1.706;2022-08-01T10:42:59;1.50;;;1.40;;
16824;SDS011;8529;48.108;-1.706;2022-08-01T10:45:27;2.63;;;1.50;;
16824;SDS011;8529;48.108;-1.706;2022-08-01T10:47:58;2.88;;;1.80;;
16824;SDS011;8529;48.108;-1.706;2022-08-01T10:50:31;2.00;;;1.48;;
16824;SDS011;8529;48.108;-1.706;2022-08-01T10:53:03;2.17;;;1.55;;
16824;SDS011;8529;48.108;-1.706;2022-08-01T10:55:48;1.90;;;1.70;;
16824;SDS011;8529;48.108;-1.706;2022-08-01T10:58:21;2.15;;;1.95;;
16824;SDS011;8529;48.108;-1.706;2022-08-01T11:04:00;2.85;;;1.90;;
16824;SDS011;8529;48.108;-1.706;2022-08-01T11:06:35;4.57;;;1.65;;
16824;SDS011;8529;48.108;-1.706;2022-08-01T11:09:20;1.95;;;1.20;;
16824;SDS011;8529;48.108;-1.706;2022-08-01T11:12:00;2.40;;;1.90;;
16824;SDS011;8529;48.108;-1.706;2022-08-01T11:14:30;1.83;;;1.30;;
16824;SDS011;8529;48.108;-1.706;2022-08-01T11:20:07;3.00;;;2.10;;
16824;SDS011;8529;48.108;-1.706;2022-08-01T11:26:07;2.38;;;1.55;;
16824;SDS011;8529;48.108;-1.706;2022-08-01T11:28:35;2.20;;;1.35;;
16824;SDS011;8529;48.108;-1.706;2022-08-01T11:33:55;4.88;;;1.77;;
16824;SDS011;8529;48.108;-1.706;2022-08-01T11:36:24;3.38;;;1.90;;
16824;SDS011;8529;48.108;-1.706;2022-08-01T11:39:11;2.25;;;1.88;;
16824;SDS011;8529;48.108;-1.706;2022-08-01T11:41:44;2.97;;;1.88;;
16824;SDS011;8529;48.108;-1.706;2022-08-01T11:44:14;2.10;;;1.70;;
16824;SDS011;8529;48.108;-1.706;2022-08-01T11:49:43;4.53;;;1.73;;
16824;SDS011;8529;48.108;-1.706;2022-08-01T11:52:13;2.20;;;1.60;;
16824;SDS011;8529;48.108;-1.706;2022-08-01T11:54:42;1.98;;;1.80;;
16824;SDS011;8529;48.108;-1.706;2022-08-01T11:57:11;3.08;;;1.77;;
16824;SDS011;8529;48.108;-1.706;2022-08-01T11:59:39;1.65;;;1.55;;
16824;SDS011;8529;48.108;-1.706;2022-08-01T12:02:14;2.17;;;1.67;;
16824;SDS011;8529;48.108;-1.706;2022-08-01T12:04:50;2.13;;;1.73;;
16824;SDS011;8529;48.108;-1.706;2022-08-01T12:07:21;2.47;;;1.80;;
16824;SDS011;8529;48.108;-1.706;2022-08-01T12:09:55;2.88;;;1.67;;
16824;SDS011;8529;48.108;-1.706;2022-08-01T12:12:23;3.40;;;2.03;;
16824;SDS011;8529;48.108;-1.706;2022-08-01T12:14:52;1.98;;;1.80;;
16824;SDS011;8529;48.108;-1.706;2022-08-01T12:17:26;2.58;;;1.70;;
16824;SDS011;8529;48.108;-1.706;2022-08-01T12:19:54;1.60;;;1.50;;
16824;SDS011;8529;48.108;-1.706;2022-08-01T12:22:23;2.38;;;1.60;;
16824;SDS011;8529;48.108;-1.706;2022-08-01T12:24:51;1.90;;;1.70;;
16824;SDS011;8529;48.108;-1.706;2022-08-01T12:27:25;1.83;;;1.55;;
16824;SDS011;8529;48.108;-1.706;2022-08-01T12:29:53;1.95;;;1.75;;
16824;SDS011;8529;48.108;-1.706;2022-08-01T12:32:21;2.03;;;1.73;;
16824;SDS011;8529;48.108;-1.706;2022-08-01T12:34:49;1.98;;;1.65;;
16824;SDS011;8529;48.108;-1.706;2022-08-01T12:37:17;2.95;;;1.70;;
16824;SDS011;8529;48.108;-1.706;2022-08-01T12:39:46;2.53;;;1.77;;
16824;SDS011;8529;48.108;-1.706;2022-08-01T12:42:13;2.47;;;1.80;;
16824;SDS011;8529;48.108;-1.706;2022-08-01T12:44:41;1.88;;;1.65;;
16824;SDS011;8529;48.108;-1.706;2022-08-01T12:47:11;2.35;;;1.85;;
16824;SDS011;8529;48.108;-1.706;2022-08-01T12:49:40;3.08;;;1.80;;
16824;SDS011;8529;48.108;-1.706;2022-08-01T12:52:09;1.58;;;1.48;;
16824;SDS011;8529;48.108;-1.706;2022-08-01T12:57:28;1.50;;;1.40;;
16824;SDS011;8529;48.108;-1.706;2022-08-01T13:00:04;2.10;;;1.90;;
16824;SDS011;8529;48.108;-1.706;2022-08-01T13:02:32;1.92;;;1.73;;
16824;SDS011;8529;48.108;-1.706;2022-08-01T13:04:59;1.50;;;1.30;;
16824;SDS011;8529;48.108;-1.706;2022-08-01T13:07:34;1.40;;;1.30;;
16824;SDS011;8529;48.108;-1.706;2022-08-01T13:10:03;1.95;;;1.67;;
16824;SDS011;8529;48.108;-1.706;2022-08-01T13:12:31;2.60;;;1.75;;
16824;SDS011;8529;48.108;-1.706;2022-08-01T13:14:58;2.33;;;1.73;;
16824;SDS011;8529;48.108;-1.706;2022-08-01T13:17:31;1.73;;;1.63;;
16824;SDS011;8529;48.108;-1.706;2022-08-01T13:20:00;2.50;;;1.70;;
16824;SDS011;8529;48.108;-1.706;2022-08-01T13:22:33;2.45;;;1.73;;
16824;SDS011;8529;48.108;-1.706;2022-08-01T13:25:11;2.05;;;1.85;;
16824;SDS011;8529;48.108;-1.706;2022-08-01T13:27:39;1.83;;;1.65;;
16824;SDS011;8529;48.108;-1.706;2022-08-01T13:30:10;2.15;;;1.80;;
16824;SDS011;8529;48.108;-1.706;2022-08-01T13:32:38;3.42;;;1.85;;
16824;SDS011;8529;48.108;-1.706;2022-08-01T13:35:08;2.03;;;1.83;;
16824;SDS011;8529;48.108;-1.706;2022-08-01T13:37:37;2.58;;;1.85;;
16824;SDS011;8529;48.108;-1.706;2022-08-01T13:40:05;2.10;;;1.52;;
16824;SDS011;8529;48.108;-1.706;2022-08-01T13:42:34;1.65;;;1.55;;
16824;SDS011;8529;48.108;-1.706;2022-08-01T13:45:02;2.55;;;1.92;;
16824;SDS011;8529;48.108;-1.706;2022-08-01T13:47:32;3.10;;;2.00;;
16824;SDS011;8529;48.108;-1.706;2022-08-01T13:49:59;2.40;;;1.75;;
16824;SDS011;8529;48.108;-1.706;2022-08-01T13:52:27;2.17;;;1.48;;
16824;SDS011;8529;48.108;-1.706;2022-08-01T13:54:54;1.52;;;1.42;;
16824;SDS011;8529;48.108;-1.706;2022-08-01T13:57:21;1.55;;;1.45;;
16824;SDS011;8529;48.108;-1.706;2022-08-01T13:59:50;1.70;;;1.33;;
16824;SDS011;8529;48.108;-1.706;2022-08-01T14:02:17;2.03;;;1.70;;
16824;SDS011;8529;48.108;-1.706;2022-08-01T14:04:44;2.72;;;1.52;;
16824;SDS011;8529;48.108;-1.706;2022-08-01T14:07:11;2.00;;;1.48;;
16824;SDS011;8529;48.108;-1.706;2022-08-01T14:09:38;1.65;;;1.55;;
16824;SDS011;8529;48.108;-1.706;2022-08-01T14:14:36;2.42;;;1.83;;
16824;SDS011;8529;48.108;-1.706;2022-08-01T14:17:05;2.55;;;1.77;;
16824;SDS011;8529;48.108;-1.706;2022-08-01T14:22:07;5.65;;;1.70;;
16824;SDS011;8529;48.108;-1.706;2022-08-01T14:24:34;2.55;;;1.75;;
16824;SDS011;8529;48.108;-1.706;2022-08-01T14:27:01;4.70;;;1.77;;
16824;SDS011;8529;48.108;-1.706;2022-08-01T14:29:28;2.20;;;1.70;;
16824;SDS011;8529;48.108;-1.706;2022-08-01T14:31:55;2.25;;;1.60;;
16824;SDS011;8529;48.108;-1.706;2022-08-01T14:34:23;3.50;;;2.05;;
16824;SDS011;8529;48.108;-1.706;2022-08-01T14:36:50;2.40;;;1.52;;
16824;SDS011;8529;48.108;-1.706;2022-08-01T14:39:18;3.42;;;1.52;;
16824;SDS011;8529;48.108;-1.706;2022-08-01T14:41:45;4.20;;;1.80;;
16824;SDS011;8529;48.108;-1.706;2022-08-01T14:44:12;4.63;;;1.42;;
16824;SDS011;8529;48.108;-1.706;2022-08-01T14:46:39;1.95;;;1.75;;
16824;SDS011;8529;48.108;-1.706;2022-08-01T14:49:06;2.88;;;1.48;;
16824;SDS011;8529;48.108;-1.706;2022-08-01T14:51:34;1.55;;;1.20;;
16824;SDS011;8529;48.108;-1.706;2022-08-01T14:54:03;2.00;;;1.20;;
16824;SDS011;8529;48.108;-1.706;2022-08-01T14:56:30;5.28;;;1.67;;
16824;SDS011;8529;48.108;-1.706;2022-08-01T14:58:57;1.38;;;1.27;;
16824;SDS011;8529;48.108;-1.706;2022-08-01T15:01:24;1.45;;;1.27;;
16824;SDS011;8529;48.108;-1.706;2022-08-01T15:03:51;2.20;;;1.40;;
16824;SDS011;8529;48.108;-1.706;2022-08-01T15:06:18;1.92;;;1.25;;
16824;SDS011;8529;48.108;-1.706;2022-08-01T15:08:46;1.75;;;1.65;;
16824;SDS011;8529;48.108;-1.706;2022-08-01T15:11:13;3.97;;;1.75;;
16824;SDS011;8529;48.108;-1.706;2022-08-01T15:13:40;4.07;;;1.40;;
16824;SDS011;8529;48.108;-1.706;2022-08-01T15:16:07;2.80;;;1.42;;
16824;SDS011;8529;48.108;-1.706;2022-08-01T15:18:34;2.13;;;1.55;;
16824;SDS011;8529;48.108;-1.706;2022-08-01T15:21:01;3.35;;;1.88;;
16824;SDS011;8529;48.108;-1.706;2022-08-01T15:23:28;3.90;;;1.50;;